Flight Track Log - Related Links

Times and Time Zones

All times are in EDT time to prevent confusion due to time zone crossing. See the UAL252 flight status page for this flight to view local times or setup timezone preferences in your user account.

Time Position Orientation Groundspeed Altitude Reporting Facility
EDT Latitude Longitude Course Direction KTS MPH feet Rate Location/Type
08:32PM 29.9786 -95.2981 30° Northeast 152 175 900  Level Houston Center
08:33PM 30.0483 -95.2583 26° Northeast 263 303 2,800 1,482 Climbing Houston Center
08:35PM 30.2799 -95.0897 28° Northeast  Level FlightAware Approximate
08:35PM 30.1431 -95.2103 24° Northeast 274 315 5,100  Level Houston Center
08:36PM 30.3826 -95.0139 35° Northeast  Level FlightAware Approximate
08:36PM 30.2097 -95.1592 34° Northeast 282 325 8,300  Level Houston Center
08:37PM 30.4801 -94.9299 30° Northeast  Level FlightAware Approximate
08:37PM 30.2772 -95.1047 35° Northeast 291 335 11,300  Level Houston Center
08:38PM 30.3647 -95.0397 33° Northeast 307 353 14,400 2,195 Climbing Houston Center
08:39PM 30.4369 -94.9833 34° Northeast 336 387 15,800 1,839 Climbing Houston Center
08:40PM 30.5203 -94.9175 34° Northeast 358 412 18,200 1,902 Climbing Houston Center
08:41PM 30.6247 -94.8381 33° Northeast 376 433 19,700 1,073 Climbing Houston Center
08:42PM 30.7219 -94.7625 34° Northeast 415 478 20,400 871 Climbing Houston Center
08:43PM 30.8244 -94.6828 34° Northeast 444 511 21,500 1,122 Climbing Houston Center
08:44PM 30.9303 -94.6014 33° Northeast 455 524 22,700 1,220 Climbing Houston Center
08:45PM 31.0378 -94.5178 34° Northeast 466 536 24,000 1,113 Climbing Houston Center
08:46PM 31.1681 -94.4169 34° Northeast 476 548 25,000 871 Climbing Houston Center
08:47PM 31.2808 -94.3292 34° Northeast 489 563 25,800 976 Climbing Houston Center
08:48PM 31.3936 -94.2408 34° Northeast 492 566 27,000 1,317 Climbing Houston Center
08:49PM 31.5056 -94.1544 33° Northeast 485 558 28,500 1,403 Climbing Houston Center
08:50PM 31.6156 -94.0678 34° Northeast 481 554 29,900 1,317 Climbing Houston Center
08:51PM 31.7250 -93.9822 34° Northeast 475 547 31,200 1,220 Climbing Houston Center
08:52PM 31.8450 -93.8858 34° Northeast 469 540 32,400 1,258 Climbing Houston Center
08:53PM 31.9561 -93.7989 34° Northeast 473 544 33,800 1,113 Climbing Houston Center
08:54PM 32.0714 -93.7061 34° Northeast 470 541 34,700 978 Climbing Houston Center
08:55PM 32.1303 -93.6625 32° Northeast 472 543 35,300 867 Climbing Fort Worth Center
08:56PM 32.2258 -93.5775 37° Northeast 477 549 36,000 347 Climbing Fort Worth Center
08:57PM 32.3339 -93.4894 35° Northeast 477 549 36,000 100 Level Fort Worth Center
08:58PM 32.4439 -93.4033 33° Northeast 477 549 36,200 454 Climbing Fort Worth Center
08:59PM 32.5517 -93.3150 35° Northeast 471 542 36,900 595 Climbing Fort Worth Center
09:00PM 32.6594 -93.2261 35° Northeast 471 542 37,400 550 Climbing Fort Worth Center
09:01PM 32.7711 -93.1394 33° Northeast 476 548 38,000 605 Climbing Fort Worth Center
09:02PM 32.8789 -93.0500 35° Northeast 476 548 38,600 500 Climbing Fort Worth Center
09:03PM 32.9864 -92.9631 34° Northeast 476 548 39,000 200 Climbing Fort Worth Center
09:04PM 33.0981 -92.8733 34° Northeast 476 548 39,000  Level Fort Worth Center
09:05PM 33.2031 -92.7811 36° Northeast 476 548 39,000  Level Fort Worth Center
09:07PM 33.3553 -92.4836 58° Northeast 477 549 39,000  Level Memphis Center
09:08PM 33.4100 -92.3356 66° East 472 543 39,000  Level Memphis Center
09:09PM 33.4644 -92.1850 67° East 472 543 39,000  Level Memphis Center
09:10PM 33.5167 -92.0392 67° East 477 549 39,000  Level Memphis Center
09:11PM 33.5686 -91.8856 68° East 477 549 39,000  Level Memphis Center
09:12PM 33.6267 -91.7369 65° Northeast 484 557 39,000  Level Memphis Center
09:13PM 33.6783 -91.5853 68° East 484 557 39,000  Level Memphis Center
09:14PM 33.7319 -91.4314 67° East 489 563 39,000  Level Memphis Center
09:15PM 33.7853 -91.2819 67° East 489 563 39,000  Level Memphis Center
09:16PM 33.8322 -91.1425 68° East 489 563 39,000  Level Memphis Center
09:17PM 33.8872 -90.9903 66° East 494 568 39,000  Level Memphis Center
09:18PM 33.9403 -90.8378 67° East 489 563 39,000  Level Memphis Center
09:19PM 33.9950 -90.6853 67° East 489 563 39,000  Level Memphis Center
09:20PM 34.0475 -90.5325 67° East 489 563 39,000  Level Memphis Center
09:21PM 34.1017 -90.3772 67° East 494 568 39,000  Level Memphis Center
09:22PM 34.1600 -90.2067 68° East 494 568 39,000  Level Memphis Center
09:23PM 34.2161 -90.0533 66° East 499 574 39,000  Level Memphis Center
09:24PM 34.2700 -89.8997 67° East 499 574 39,000  Level Memphis Center
09:25PM 34.3278 -89.7433 66° East 499 574 39,000  Level Memphis Center
09:26PM 34.3831 -89.5894 66° East 499 574 39,000  Level Memphis Center
09:27PM 34.4406 -89.4353 66° East 499 574 39,000  Level Memphis Center
09:28PM 34.4956 -89.2811 67° East 499 574 39,000  Level Memphis Center
09:29PM 34.5525 -89.1239 66° East 499 574 39,000  Level Memphis Center
09:30PM 34.6094 -88.9667 66° East 499 574 39,000  Level Memphis Center
09:31PM 34.6828 -88.8292 57° Northeast 492 566 39,000  Level Memphis Center
09:32PM 34.7731 -88.6986 50° Northeast 492 566 39,000  Level Memphis Center
09:33PM 34.8631 -88.5728 49° Northeast 492 566 39,000  Level Memphis Center
09:34PM 34.9428 -88.4647 48° Northeast 484 557 39,000  Level Memphis Center
09:35PM 35.0303 -88.3333 51° Northeast 484 557 39,000  Level Memphis Center
09:36PM 35.1181 -88.2094 49° Northeast 489 563 39,000  Level Memphis Center
09:37PM 35.2075 -88.0775 50° Northeast 489 563 39,000  Level Memphis Center
09:38PM 35.2947 -87.9481 50° Northeast 489 563 39,000  Level Memphis Center
09:39PM 35.3839 -87.8181 50° Northeast 494 568 39,000  Level Memphis Center
09:41PM 35.5617 -87.5447 51° Northeast 489 563 39,000  Level Memphis Center
09:42PM 35.6503 -87.4139 50° Northeast 483 556 39,000  Level Memphis Center
09:43PM 35.7369 -87.2856 50° Northeast 483 556 39,000  Level Memphis Center
09:44PM 35.8231 -87.1542 51° Northeast 490 564 39,000  Level Memphis Center
09:45PM 35.8994 -87.0411 50° Northeast 490 564 39,000  Level Memphis Center
09:46PM 35.9856 -86.9092 51° Northeast 490 564 39,000  Level Memphis Center
09:47PM 36.0694 -86.7775 52° Northeast 490 564 39,000  Level Memphis Center
09:48PM 36.1444 -86.6353 57° Northeast 495 570 39,000  Level Memphis Center
09:49PM 36.1978 -86.4761 67° East 495 570 39,000  Level Memphis Center
09:50PM 36.2469 -86.3167 69° East 495 570 39,000  Level Memphis Center
09:52PM 36.3328 -86.0311 69° East 492 566 39,000  Level Indianapolis Center
09:53PM 36.3808 -85.8686 70° East 498 573 39,000  Level Indianapolis Center
09:54PM 36.4342 -85.6903 70° East 502 578 39,000  Level Indianapolis Center
09:55PM 36.4817 -85.5269 70° East 502 578 39,000 48 Level Indianapolis Center
09:56PM 36.5286 -85.3631 70° East 503 579 39,100  Climbing Indianapolis Center
09:57PM 36.5758 -85.1981 70° East 505 581 39,000 -49 Descending Indianapolis Center
09:58PM 36.6256 -85.0336 69° East 504 580 39,000  Level Indianapolis Center
09:59PM 36.6781 -84.8733 68° East 505 581 39,000  Level Indianapolis Center
10:00PM 36.7283 -84.7092 69° East 504 580 39,000  Level Indianapolis Center
10:01PM 36.7789 -84.5464 69° East 507 583 39,000  Level Indianapolis Center
10:02PM 36.8342 -84.3667 69° East 505 581 39,000  Level Indianapolis Center
10:03PM 36.8847 -84.2047 69° East 499 574 39,000  Level Indianapolis Center
10:04PM 36.9347 -84.0394 69° East 505 581 39,000  Level Indianapolis Center
10:05PM 36.9858 -83.8758 69° East 504 580 39,000  Level Indianapolis Center
10:06PM 37.0369 -83.7092 69° East 510 587 39,000  Level Indianapolis Center
10:07PM 37.0861 -83.5450 69° East 503 579 39,000  Level Indianapolis Center
10:08PM 37.1453 -83.3514 69° East 506 582 39,000  Level Indianapolis Center
10:09PM 37.1942 -83.1842 70° East 507 583 39,000  Level Indianapolis Center
10:10PM 37.2439 -83.0172 69° East 506 582 39,000  Level Indianapolis Center
10:11PM 37.2917 -82.8494 70° East 504 580 39,000  Level Indianapolis Center
10:12PM 37.3417 -82.6825 69° East 507 583 39,000  Level Indianapolis Center
10:13PM 37.3894 -82.5161 70° East 505 581 39,000  Level Indianapolis Center
10:14PM 37.4375 -82.3492 70° East 505 581 39,000  Level Indianapolis Center
10:15PM 37.4867 -82.1822 70° East 507 583 39,000  Level Indianapolis Center
10:16PM 37.5322 -82.0153 71° East 504 580 39,000  Level Indianapolis Center
10:17PM 37.5803 -81.8489 70° East 504 580 39,000 49 Level Indianapolis Center
10:18PM 37.6278 -81.6828 70° East 503 579 39,100  Climbing Indianapolis Center
10:19PM 37.6797 -81.4925 71° East 501 577 39,000 -49 Descending Indianapolis Center
10:20PM 37.7242 -81.3306 71° East 500 575 39,000  Level Indianapolis Center
10:21PM 37.7686 -81.1689 71° East 501 577 39,000  Level Indianapolis Center
10:22PM 37.8217 -81.0100 67° East 500 575 39,000  Level Indianapolis Center
10:23PM 37.8781 -80.8494 66° East 501 577 39,000 49 Level Indianapolis Center
10:24PM 37.9336 -80.6906 66° East 496 571 39,100  Climbing Indianapolis Center
10:25PM 37.9894 -80.5319 66° East 495 570 39,000 -49 Descending Indianapolis Center
10:26PM 38.0517 -80.3575 66° East 495 570 39,000  Level Indianapolis Center
10:27PM 38.1133 -80.1800 66° East 501 577 39,000  Level Indianapolis Center
10:28PM 38.1608 -80.0458 66° East 491 565 39,000  Level Indianapolis Center
10:29PM 38.2272 -79.8594 66° East 493 567 39,000 -787 Level Indianapolis Center
10:30PM 38.2814 -79.7061 66° East 487 560 37,400 -1,869 Descending Indianapolis Center
10:31PM 38.3333 -79.5536 66° East 483 556 35,200 -2,262 Descending Indianapolis Center
10:32PM 38.3858 -79.3983 67° East 486 559 32,800 -2,356 Descending Indianapolis Center
10:34PM 38.4442 -79.2050 69° East 489 563 29,900 -2,182 Descending Washington Center
10:35PM 38.4744 -79.0233 78° East 477 549 28,000 -2,085 Descending Washington Center
10:36PM 38.4997 -78.8708 78° East 460 529 25,800 -2,016 Descending Washington Center
10:37PM 38.5222 -78.7258 79° East 434 499 23,900 -1,918 Descending Washington Center
10:38PM 38.5447 -78.5806 79° East 420 483 21,900 -1,881 Descending Washington Center
10:39PM 38.5669 -78.4381 79° East 410 472 20,200 -1,729 Descending Washington Center
10:40PM 38.5889 -78.3008 78° East 405 466 18,500 -1,550 Descending Washington Center
10:41PM 38.6231 -78.1719 71° East 394 453 17,100 -1,450 Descending Washington Center
10:42PM 38.6589 -78.0536 69° East 369 425 15,600 -1,289 Descending Washington Center
10:43PM 38.6942 -77.9511 66° East 336 387 14,500 -1,190 Descending Washington Center
10:44PM 38.7256 -77.8483 69° East 319 367 13,200 -1,240 Descending Washington Center
10:45PM 38.7750 -77.7644 53° Northeast 294 338 12,000 -1,210 Descending Washington Center
10:46PM 38.8283 -77.6942 46° Northeast 294 338 10,800 -1,269 Descending Washington Center
10:46PM 38.8667 -77.6167 58° Northeast 296 341 9,800 -1,528 Descending Potomac TRACON
10:47PM 38.9333 -77.5333 44° Northeast 286 329 8,100 -1,190 Descending Potomac TRACON
10:48PM 38.9667 -77.4667 57° Northeast 260 299 7,400 -1,370 Descending Potomac TRACON
10:50PM 39.0000 -77.3500 70° East 260 299 5,200 -1,228 Descending Potomac TRACON
10:51PM 39.0333 -77.2667 63° Northeast 227 261 4,800 -843 Descending Potomac TRACON
10:52PM 39.0000 -77.2000 123° Southeast 230 265 3,500 -1,300 Descending Potomac TRACON

Login

Don't have an account? Register now (free) for customized features, flight alerts, and more!